Time;durP1;ratioP1;P1;durP2;ratioP2;P2;SDS_P1;SDS_P2;PMS_P1;PMS_P2;Temp;Humidity;BMP_temperature;BMP_pressure;BME280_temperature;BME280_humidity;BME280_pressure;Samples;Min_cycle;Max_cycle;Signal;HPM_P1;HPM_P2
2022/07/22 00:00:36;;;;;;;26.75;16.40;;;;;19.90;96744.00;;;;8408487;28;20317;-72
2022/07/22 00:04:39;;;;;;;22.02;16.40;;;;;19.90;96748.00;;;;8408070;28;20234;-74
2022/07/22 00:08:43;;;;;;;28.48;16.52;;;;;19.80;96748.00;;;;8401950;28;20215;-74
2022/07/22 00:12:46;;;;;;;27.95;16.63;;;;;19.80;96745.00;;;;8412807;28;20225;-73
2022/07/22 00:16:50;;;;;;;25.17;15.68;;;;;19.70;96739.00;;;;8400908;28;20237;-74
2022/07/22 00:20:54;;;;;;;23.38;17.00;;;;;19.60;96739.00;;;;8405966;28;20401;-73
2022/07/22 00:24:57;;;;;;;24.02;16.23;;;;;19.60;96731.00;;;;8404711;28;20232;-72
2022/07/22 00:29:00;;;;;;;27.02;16.52;;;;;19.60;96734.00;;;;8414367;28;20227;-75
2022/07/22 00:33:05;;;;;;;24.80;17.10;;;;;19.50;96730.00;;;;8407224;28;20648;-73
2022/07/22 00:37:08;;;;;;;24.25;15.02;;;;;19.50;96722.00;;;;8391987;28;20734;-73
2022/07/22 00:41:11;;;;;;;26.90;18.40;;;;;19.40;96713.00;;;;8408337;28;20672;-74
2022/07/22 00:45:14;;;;;;;23.60;17.38;;;;;19.40;96720.00;;;;8393356;28;20243;-74
2022/07/22 00:49:19;;;;;;;26.02;16.70;;;;;19.30;96715.00;;;;8393790;28;20254;-73
2022/07/22 00:53:22;;;;;;;25.58;18.63;;;;;19.20;96715.00;;;;8411115;28;20231;-73
2022/07/22 00:57:25;;;;;;;35.30;19.30;;;;;19.10;96710.00;;;;8399628;28;20234;-73
2022/07/22 01:01:29;;;;;;;25.80;17.85;;;;;19.00;96719.00;;;;8412759;28;20302;-72
2022/07/22 01:05:34;;;;;;;23.30;17.58;;;;;19.00;96715.00;;;;8407048;28;20264;-74
2022/07/22 01:09:37;;;;;;;27.42;17.00;;;;;18.90;96716.00;;;;8405876;28;20246;-74
2022/07/22 01:13:41;;;;;;;25.10;17.25;;;;;18.90;96716.00;;;;8403325;28;20219;-72
2022/07/22 01:17:44;;;;;;;27.85;18.75;;;;;18.70;96716.00;;;;8409433;28;20306;-73
2022/07/22 01:21:48;;;;;;;36.40;17.40;;;;;18.60;96719.00;;;;8397356;28;20224;-75
2022/07/22 01:25:52;;;;;;;27.08;17.50;;;;;18.60;96720.00;;;;8399835;28;20310;-76
2022/07/22 01:29:55;;;;;;;30.65;18.60;;;;;18.40;96711.00;;;;8410128;28;20302;-74
2022/07/22 01:33:59;;;;;;;30.15;18.55;;;;;18.40;96705.00;;;;8412542;28;20223;-75
2022/07/22 01:38:04;;;;;;;27.42;17.92;;;;;18.40;96708.00;;;;8417649;28;20234;-73
2022/07/22 01:42:07;;;;;;;30.05;18.85;;;;;18.30;96704.00;;;;8403386;28;20314;-72
2022/07/22 01:46:10;;;;;;;28.83;17.95;;;;;18.40;96706.00;;;;8409375;28;20227;-74
2022/07/22 01:50:13;;;;;;;25.80;18.38;;;;;18.30;96707.00;;;;8391494;28;20230;-73
2022/07/22 01:54:18;;;;;;;29.23;17.17;;;;;18.30;96698.00;;;;8412607;28;20229;-76
2022/07/22 01:58:21;;;;;;;27.58;19.52;;;;;18.20;96700.00;;;;8405345;28;20219;-72
2022/07/22 02:02:24;;;;;;;37.13;17.83;;;;;18.20;96703.00;;;;8408752;28;20314;-71
2022/07/22 02:06:29;;;;;;;34.25;19.75;;;;;18.20;96698.00;;;;8417628;28;20632;-72
2022/07/22 02:10:34;;;;;;;36.50;21.15;;;;;18.10;96700.00;;;;8407090;28;20386;-73
2022/07/22 02:14:37;;;;;;;34.80;19.67;;;;;18.10;96696.00;;;;8407143;28;20258;-74
2022/07/22 02:18:41;;;;;;;37.55;19.65;;;;;18.10;96698.00;;;;8415771;28;20223;-73
2022/07/22 02:22:44;;;;;;;29.48;19.00;;;;;18.20;96695.00;;;;8418560;28;20225;-74
2022/07/22 02:26:48;;;;;;;28.05;19.20;;;;;18.10;96701.00;;;;8401920;28;20272;-74
2022/07/22 02:30:51;;;;;;;30.45;19.55;;;;;18.10;96699.00;;;;8418841;28;20253;-73
2022/07/22 02:34:55;;;;;;;32.03;19.83;;;;;18.10;96698.00;;;;8417448;28;20305;-73
2022/07/22 02:38:59;;;;;;;33.47;18.98;;;;;18.00;96696.00;;;;8409893;28;20235;-72
2022/07/22 02:43:06;;;;;;;39.35;19.73;;;;;18.00;96690.00;;;;8411665;28;20584;-73
2022/07/22 02:47:09;;;;;;;33.58;18.35;;;;;17.90;96695.00;;;;8408910;28;20278;-74
2022/07/22 02:51:12;;;;;;;42.03;20.17;;;;;17.90;96690.00;;;;8409428;28;20704;-75
2022/07/22 02:55:15;;;;;;;40.78;21.05;;;;;17.80;96694.00;;;;8411803;28;20214;-74
2022/07/22 02:59:20;;;;;;;35.72;18.63;;;;;17.90;96695.00;;;;8418318;28;20255;-76
2022/07/22 03:03:23;;;;;;;40.15;20.00;;;;;17.80;96700.00;;;;8422422;22;20717;-78
2022/07/22 03:07:27;;;;;;;30.80;19.42;;;;;17.70;96698.00;;;;8411368;28;20244;-77
2022/07/22 03:11:32;;;;;;;36.05;20.05;;;;;17.70;96695.00;;;;8408032;28;20322;-75
2022/07/22 03:15:37;;;;;;;31.88;19.83;;;;;17.60;96692.00;;;;8405586;28;20929;-74
2022/07/22 03:19:41;;;;;;;27.35;18.73;;;;;17.60;96691.00;;;;8400564;28;20220;-77
2022/07/22 03:23:44;;;;;;;41.20;21.25;;;;;17.60;96691.00;;;;8417477;28;20676;-73
2022/07/22 03:27:47;;;;;;;42.58;20.23;;;;;17.60;96693.00;;;;8412571;28;21132;-74
2022/07/22 03:31:52;;;;;;;38.25;20.00;;;;;17.60;96695.00;;;;8407778;28;20223;-74
2022/07/22 03:35:55;;;;;;;31.33;19.50;;;;;17.60;96700.00;;;;8409195;28;20229;-77
2022/07/22 03:39:58;;;;;;;57.05;16.65;;;;;17.70;96696.00;;;;8405391;28;20231;-76
2022/07/22 03:44:21;;;;;;;30.02;19.70;;;;;17.60;96697.00;;;;8411687;28;20215;-75
2022/07/22 03:48:49;;;;;;;31.63;20.58;;;;;17.60;96698.00;;;;8412314;28;20323;-76
2022/07/22 03:52:53;;;;;;;44.25;21.95;;;;;17.50;96691.00;;;;8410729;28;20312;-76
2022/07/22 03:56:56;;;;;;;31.02;19.55;;;;;17.50;96695.00;;;;8409440;28;20242;-77
2022/07/22 04:00:59;;;;;;;28.98;18.30;;;;;17.60;96702.00;;;;8414560;27;20571;-74
2022/07/22 04:05:05;;;;;;;45.72;22.85;;;;;17.60;96696.00;;;;8374200;28;20236;-74
2022/07/22 04:09:08;;;;;;;40.35;21.45;;;;;17.70;96701.00;;;;8369579;28;20229;-76
2022/07/22 04:13:11;;;;;;;31.70;19.27;;;;;17.80;96698.00;;;;8361147;28;20711;-76
2022/07/22 04:17:15;;;;;;;39.85;22.17;;;;;17.90;96712.00;;;;8363285;28;20307;-76
2022/07/22 04:21:19;;;;;;;33.90;19.45;;;;;17.90;96705.00;;;;8377844;28;20224;-77
2022/07/22 04:25:22;;;;;;;36.10;20.02;;;;;18.10;96702.00;;;;8374014;28;20641;-77
2022/07/22 04:29:26;;;;;;;32.35;19.58;;;;;18.30;96703.00;;;;8379546;28;20681;-74
2022/07/22 04:33:29;;;;;;;44.97;24.15;;;;;18.40;96704.00;;;;8365457;28;20228;-75
2022/07/22 04:37:34;;;;;;;26.85;18.20;;;;;18.60;96704.00;;;;8378074;28;20325;-75
2022/07/22 04:41:37;;;;;;;34.95;21.10;;;;;18.80;96699.00;;;;8378665;28;20250;-78
2022/07/22 04:45:41;;;;;;;27.15;18.88;;;;;19.00;96691.00;;;;8374524;28;20269;-74
2022/07/22 04:49:44;;;;;;;26.17;17.30;;;;;19.30;96693.00;;;;8375069;28;20238;-75
2022/07/22 04:53:49;;;;;;;27.55;18.45;;;;;19.50;96691.00;;;;8378252;28;20223;-75
2022/07/22 04:57:52;;;;;;;24.80;17.90;;;;;19.70;96694.00;;;;8376668;28;20310;-72
2022/07/22 05:01:55;;;;;;;27.85;19.42;;;;;19.90;96692.00;;;;8371976;28;20347;-72
2022/07/22 05:05:59;;;;;;;28.33;21.15;;;;;20.10;96699.00;;;;8402995;28;20226;-72
2022/07/22 05:10:04;;;;;;;28.48;18.55;;;;;20.40;96690.00;;;;8412973;28;20235;-75
2022/07/22 05:14:07;;;;;;;33.72;20.88;;;;;20.70;96696.00;;;;8410249;28;20222;-74
2022/07/22 05:18:10;;;;;;;31.52;19.15;;;;;20.80;96696.00;;;;8410819;28;20223;-75
2022/07/22 05:22:13;;;;;;;31.65;19.00;;;;;21.00;96705.00;;;;8406836;28;20233;-72
2022/07/22 05:26:18;;;;;;;26.05;19.10;;;;;21.40;96702.00;;;;8408829;28;20489;-74
2022/07/22 05:30:21;;;;;;;26.90;17.40;;;;;21.70;96701.00;;;;8405526;28;20623;-72
2022/07/22 05:34:27;;;;;;;29.88;20.42;;;;;22.00;96703.00;;;;8414743;28;20211;-72
2022/07/22 05:38:33;;;;;;;27.85;19.85;;;;;22.20;96705.00;;;;8400516;28;20226;-76
2022/07/22 05:42:37;;;;;;;28.38;18.98;;;;;22.40;96698.00;;;;8404873;28;20780;-73
2022/07/22 05:46:41;;;;;;;29.67;19.77;;;;;22.70;96702.00;;;;8406447;28;20229;-72
2022/07/22 05:50:44;;;;;;;30.20;19.65;;;;;22.80;96701.00;;;;8405114;28;20222;-74
2022/07/22 05:54:47;;;;;;;30.52;21.38;;;;;23.00;96701.00;;;;8409022;28;20272;-74
2022/07/22 05:58:52;;;;;;;31.10;19.88;;;;;23.10;96709.00;;;;8409078;28;20234;-74
2022/07/22 06:02:56;;;;;;;28.73;19.33;;;;;23.30;96717.00;;;;8385533;28;20220;-75
2022/07/22 06:06:59;;;;;;;27.92;19.25;;;;;23.40;96704.00;;;;8372537;28;20667;-75
2022/07/22 06:11:03;;;;;;;29.50;19.48;;;;;23.60;96705.00;;;;8378180;28;20224;-75
2022/07/22 06:15:08;;;;;;;28.92;19.90;;;;;23.90;96707.00;;;;8373682;28;20704;-77
2022/07/22 06:19:12;;;;;;;27.90;19.50;;;;;24.30;96707.00;;;;8371343;28;20585;-76
2022/07/22 06:23:15;;;;;;;24.85;19.75;;;;;24.80;96710.00;;;;8372277;28;20232;-71
2022/07/22 06:27:21;;;;;;;27.92;20.15;;;;;25.10;96710.00;;;;8374259;28;20235;-71
2022/07/22 06:31:26;;;;;;;26.67;18.95;;;;;25.50;96711.00;;;;8374212;28;20276;-71
2022/07/22 06:35:29;;;;;;;28.17;19.70;;;;;25.90;96720.00;;;;8367191;28;20223;-71
2022/07/22 06:39:33;;;;;;;22.90;16.20;;;;;26.60;96724.00;;;;8370478;28;20239;-76
2022/07/22 06:43:44;;;;;;;26.42;18.08;;;;;27.50;96729.00;;;;8379597;28;20223;-78
2022/07/22 06:47:48;;;;;;;25.27;18.42;;;;;28.20;96726.00;;;;8369194;28;20230;-77
2022/07/22 06:51:53;;;;;;;27.05;18.90;;;;;28.70;96729.00;;;;8378260;28;20223;-78
2022/07/22 06:55:57;;;;;;;26.83;19.73;;;;;29.00;96727.00;;;;8374873;28;20227;-76
2022/07/22 07:00:09;;;;;;;27.52;19.42;;;;;29.30;96724.00;;;;8380115;28;20760;-77
2022/07/22 07:04:14;;;;;;;22.38;18.20;;;;;29.60;96716.00;;;;8399044;28;20239;-77
2022/07/22 07:08:18;;;;;;;23.75;17.85;;;;;29.80;96724.00;;;;8404392;28;20692;-77
2022/07/22 07:12:21;;;;;;;22.65;16.95;;;;;30.30;96721.00;;;;8401219;28;20223;-76
2022/07/22 07:16:25;;;;;;;19.92;13.70;;;;;30.80;96725.00;;;;8410294;28;20374;-78
2022/07/22 07:20:30;;;;;;;15.63;13.02;;;;;31.20;96717.00;;;;8408690;28;20338;-77
2022/07/22 07:24:33;;;;;;;14.38;12.02;;;;;31.30;96715.00;;;;8402076;28;20223;-78
2022/07/22 07:28:37;;;;;;;12.35;9.45;;;;;31.50;96708.00;;;;8403701;28;20687;-77
2022/07/22 07:32:43;;;;;;;12.18;9.65;;;;;31.70;96710.00;;;;8409823;28;20253;-78
2022/07/22 07:36:48;;;;;;;15.18;7.18;;;;;31.90;96710.00;;;;8409282;28;20231;-77
2022/07/22 07:40:51;;;;;;;10.10;8.20;;;;;32.40;96710.00;;;;8410698;28;20246;-77
2022/07/22 07:44:56;;;;;;;12.98;8.82;;;;;32.30;96718.00;;;;8401433;28;20697;-78
2022/07/22 07:48:59;;;;;;;11.45;7.80;;;;;32.50;96703.00;;;;8409255;28;20362;-78
2022/07/22 07:53:04;;;;;;;10.38;7.93;;;;;33.00;96704.00;;;;8392911;28;20351;-77
2022/07/22 07:57:11;;;;;;;12.93;8.85;;;;;33.40;96708.00;;;;8402987;28;20227;-77
2022/07/22 08:01:16;;;;;;;10.10;9.02;;;;;33.80;96699.00;;;;8400799;28;20219;-76
2022/07/22 08:05:21;;;;;;;12.38;9.15;;;;;33.60;96701.00;;;;8403600;28;20274;-76
2022/07/22 08:09:26;;;;;;;12.18;8.57;;;;;34.00;96704.00;;;;8384454;28;20234;-77
2022/07/22 08:13:30;;;;;;;11.65;9.00;;;;;34.50;96701.00;;;;8407420;28;20239;-73
2022/07/22 08:17:34;;;;;;;11.40;8.45;;;;;34.70;96701.00;;;;8408174;28;20231;-77
2022/07/22 08:21:38;;;;;;;9.90;8.90;;;;;34.40;96698.00;;;;8411435;28;20250;-75
2022/07/22 08:25:43;;;;;;;10.55;8.07;;;;;34.40;96697.00;;;;8410316;28;20215;-74
2022/07/22 08:29:47;;;;;;;12.90;8.00;;;;;34.90;96699.00;;;;8410333;28;20219;-74
2022/07/22 08:33:51;;;;;;;7.80;7.00;;;;;35.20;96700.00;;;;8406019;28;20306;-74
2022/07/22 08:38:01;;;;;;;8.13;7.03;;;;;35.50;96697.00;;;;8407648;28;20223;-73
2022/07/22 08:42:06;;;;;;;10.13;6.80;;;;;35.50;96688.00;;;;8406308;28;20736;-74
2022/07/22 08:46:10;;;;;;;10.10;6.90;;;;;35.60;96689.00;;;;8402794;28;20223;-73
2022/07/22 08:50:13;;;;;;;6.75;5.85;;;;;35.90;96690.00;;;;8410440;28;20222;-73
2022/07/22 08:54:17;;;;;;;6.53;5.75;;;;;36.20;96686.00;;;;8409238;28;20223;-73
2022/07/22 08:58:22;;;;;;;7.47;5.85;;;;;36.70;96686.00;;;;8411336;28;20249;-73
2022/07/22 09:02:38;;;;;;;7.90;5.70;;;;;37.20;96681.00;;;;8410018;28;20237;-74
2022/07/22 09:06:49;;;;;;;5.90;5.30;;;;;37.70;96694.00;;;;8401745;28;20535;-72
2022/07/22 09:10:52;;;;;;;9.30;6.45;;;;;37.70;96693.00;;;;8397292;28;20246;-73
2022/07/22 09:14:58;;;;;;;7.20;6.47;;;;;37.60;96689.00;;;;8395655;28;20222;-74
2022/07/22 09:19:01;;;;;;;7.78;6.97;;;;;37.50;96692.00;;;;8398597;28;20711;-73
2022/07/22 09:23:12;;;;;;;8.60;7.68;;;;;37.50;96689.00;;;;8412137;28;20227;-74
2022/07/22 09:27:24;;;;;;;10.73;7.68;;;;;37.50;96689.00;;;;8398453;28;20671;-75
2022/07/22 09:31:31;;;;;;;8.43;6.97;;;;;37.70;96679.00;;;;8406585;28;20242;-76
2022/07/22 09:35:37;;;;;;;8.20;6.93;;;;;38.20;96677.00;;;;8398295;28;20239;-80
2022/07/22 09:39:40;;;;;;;7.55;6.78;;;;;38.60;96673.00;;;;8403165;28;20227;-78
2022/07/22 09:43:44;;;;;;;10.98;7.60;;;;;38.80;96669.00;;;;8407238;28;20279;-80
2022/07/22 09:47:50;;;;;;;7.40;6.70;;;;;38.40;96658.00;;;;8402491;28;20303;-80
2022/07/22 09:51:54;;;;;;;9.63;7.28;;;;;38.70;96653.00;;;;8404307;28;20265;-77
2022/07/22 09:55:57;;;;;;;7.93;7.18;;;;;38.80;96655.00;;;;8409728;28;20219;-76
2022/07/22 10:00:01;;;;;;;8.68;6.95;;;;;39.20;96659.00;;;;8411021;28;20306;-76
2022/07/22 10:04:07;;;;;;;8.90;7.10;;;;;38.90;96655.00;;;;8414344;28;21044;-75
2022/07/22 10:08:11;;;;;;;7.93;7.03;;;;;38.80;96646.00;;;;8411239;28;20902;-76
2022/07/22 10:12:15;;;;;;;7.93;7.13;;;;;38.80;96643.00;;;;8405588;28;20660;-80
2022/07/22 10:16:19;;;;;;;8.25;7.38;;;;;38.90;96645.00;;;;8406971;28;20231;-81
2022/07/22 10:20:25;;;;;;;8.90;6.97;;;;;38.80;96638.00;;;;8400698;28;20335;-80
2022/07/22 10:24:29;;;;;;;10.23;7.82;;;;;39.30;96630.00;;;;8402963;28;20219;-81
2022/07/22 10:28:33;;;;;;;13.27;7.93;;;;;39.50;96644.00;;;;8398856;28;20408;-77
2022/07/22 10:32:37;;;;;;;9.75;7.70;;;;;39.30;96639.00;;;;8407143;28;20240;-80
2022/07/22 10:36:42;;;;;;;7.70;6.95;;;;;39.70;96632.00;;;;8400757;28;20227;-80
2022/07/22 10:40:51;;;;;;;9.77;7.50;;;;;39.80;96635.00;;;;8405430;28;20598;-82
2022/07/22 10:44:58;;;;;;;7.72;6.95;;;;;40.30;96626.00;;;;8404815;28;20691;-81
2022/07/22 10:49:04;;;;;;;7.45;6.75;;;;;40.60;96618.00;;;;8403049;28;20239;-82
2022/07/22 10:53:10;;;;;;;11.95;7.75;;;;;40.90;96618.00;;;;8398474;28;20233;-80
2022/07/22 10:57:30;;;;;;;9.65;7.30;;;;;40.90;96624.00;;;;8400955;28;20223;-83
2022/07/22 11:01:42;;;;;;;7.70;6.88;;;;;41.20;96617.00;;;;8409896;28;20977;-82
2022/07/22 11:05:45;;;;;;;7.28;6.57;;;;;41.60;96620.00;;;;8404719;28;20229;-82
2022/07/22 11:09:50;;;;;;;8.88;6.97;;;;;42.00;96611.00;;;;8407809;28;20587;-82
2022/07/22 11:13:53;;;;;;;7.50;6.43;;;;;41.90;96610.00;;;;8398903;28;20218;-82
2022/07/22 11:17:57;;;;;;;9.05;6.32;;;;;41.60;96603.00;;;;8408463;28;20627;-82
2022/07/22 11:22:03;;;;;;;8.30;7.38;;;;;40.90;96598.00;;;;8411908;28;20317;-83
2022/07/22 11:26:11;;;;;;;12.52;6.90;;;;;41.00;96593.00;;;;8396460;28;20301;-78
2022/07/22 11:30:15;;;;;;;7.28;6.55;;;;;41.00;96590.00;;;;8413753;28;20231;-80
2022/07/22 11:34:20;;;;;;;7.95;7.13;;;;;41.30;96592.00;;;;8400012;28;20220;-80
2022/07/22 11:38:23;;;;;;;10.90;6.72;;;;;39.80;96585.00;;;;8396662;28;20254;-77
2022/07/22 11:42:29;;;;;;;9.43;6.93;;;;;38.50;96581.00;;;;8407274;28;20229;-74
2022/07/22 11:46:36;;;;;;;7.40;6.65;;;;;39.50;96572.00;;;;8405540;28;20243;-75
2022/07/22 11:50:41;;;;;;;10.98;6.88;;;;;39.90;96571.00;;;;8400654;28;20231;-76
2022/07/22 11:54:45;;;;;;;7.82;6.80;;;;;40.30;96561.00;;;;8399319;28;20565;-75
2022/07/22 11:58:54;;;;;;;8.52;7.15;;;;;41.20;96564.00;;;;8404558;28;20250;-77
2022/07/22 12:02:57;;;;;;;6.55;6.05;;;;;41.70;96560.00;;;;8400703;28;20577;-78
2022/07/22 12:07:02;;;;;;;7.10;6.18;;;;;41.90;96556.00;;;;8404553;28;20259;-77
2022/07/22 12:11:05;;;;;;;8.30;6.30;;;;;42.20;96557.00;;;;8399193;28;20232;-74
2022/07/22 12:15:11;;;;;;;6.47;5.85;;;;;42.10;96542.00;;;;8410736;28;20229;-78
2022/07/22 12:19:34;;;;;;;6.35;5.60;;;;;42.00;96544.00;;;;8406000;28;20280;-77
2022/07/22 12:23:37;;;;;;;8.52;5.60;;;;;41.60;96538.00;;;;8408676;28;20268;-75
2022/07/22 12:27:40;;;;;;;6.72;5.95;;;;;41.40;96536.00;;;;8413894;28;20317;-77
2022/07/22 12:31:46;;;;;;;7.00;5.55;;;;;41.50;96539.00;;;;8403355;28;20720;-78
2022/07/22 12:36:01;;;;;;;6.20;5.63;;;;;41.60;96531.00;;;;8404602;28;20680;-75
2022/07/22 12:40:06;;;;;;;6.03;5.53;;;;;41.60;96529.00;;;;8410287;28;20227;-80
2022/07/22 12:44:16;;;;;;;6.50;5.90;;;;;40.90;96529.00;;;;8408024;28;20218;-76
2022/07/22 12:48:28;;;;;;;7.40;5.80;;;;;40.20;96519.00;;;;8410747;28;20769;-77
2022/07/22 12:52:31;;;;;;;5.90;5.43;;;;;39.40;96519.00;;;;8391055;28;20293;-78
2022/07/22 12:56:34;;;;;;;6.15;5.57;;;;;38.70;96516.00;;;;8400891;28;20231;-76
2022/07/22 13:00:41;;;;;;;7.28;6.32;;;;;38.10;96518.00;;;;8397016;28;20325;-80
2022/07/22 13:04:45;;;;;;;6.35;5.75;;;;;37.50;96508.00;;;;8405661;28;20615;-75
2022/07/22 13:08:49;;;;;;;7.93;6.25;;;;;37.00;96512.00;;;;8403940;28;20237;-77
2022/07/22 13:12:53;;;;;;;7.28;6.43;;;;;36.80;96500.00;;;;8402686;28;20573;-78
2022/07/22 13:16:56;;;;;;;8.13;5.95;;;;;36.80;96496.00;;;;8408303;28;20258;-77
2022/07/22 13:21:01;;;;;;;8.23;5.90;;;;;37.00;96491.00;;;;8386856;28;20227;-83
2022/07/22 13:25:05;;;;;;;6.90;5.55;;;;;37.10;96492.00;;;;8403045;28;20302;-80
2022/07/22 13:29:09;;;;;;;7.53;5.95;;;;;37.60;96485.00;;;;8407154;28;20749;-76
2022/07/22 13:33:12;;;;;;;5.90;5.40;;;;;38.40;96484.00;;;;8406985;28;20607;-78
2022/07/22 13:37:17;;;;;;;6.85;6.03;;;;;39.10;96478.00;;;;8400499;28;20303;-76
2022/07/22 13:41:21;;;;;;;6.97;6.15;;;;;39.80;96477.00;;;;8393624;28;20216;-78
2022/07/22 13:45:24;;;;;;;6.43;5.72;;;;;40.20;96475.00;;;;8403186;28;20230;-82
2022/07/22 13:49:28;;;;;;;8.00;5.47;;;;;39.90;96469.00;;;;8409054;28;20237;-80
2022/07/22 13:53:36;;;;;;;6.47;5.85;;;;;40.40;96470.00;;;;8409416;28;20939;-77
2022/07/22 13:57:41;;;;;;;5.72;5.13;;;;;40.30;96464.00;;;;8408966;28;20657;-78
2022/07/22 14:01:44;;;;;;;6.47;5.28;;;;;40.80;96455.00;;;;8407403;28;20777;-77
2022/07/22 14:05:48;;;;;;;6.05;5.13;;;;;41.50;96453.00;;;;8366327;28;20216;-79
2022/07/22 14:09:53;;;;;;;7.13;6.03;;;;;41.80;96445.00;;;;8378715;28;20235;-80
2022/07/22 14:13:56;;;;;;;5.97;5.43;;;;;41.90;96452.00;;;;8381689;28;20238;-76
2022/07/22 14:17:59;;;;;;;6.10;5.43;;;;;42.20;96454.00;;;;8378062;28;20263;-81
2022/07/22 14:22:03;;;;;;;8.57;5.43;;;;;42.60;96447.00;;;;8370741;28;20224;-78
2022/07/22 14:26:08;;;;;;;6.53;5.63;;;;;42.60;96445.00;;;;8372100;28;20230;-77
2022/07/22 14:30:13;;;;;;;7.18;5.22;;;;;42.50;96450.00;;;;8364576;28;20238;-81
2022/07/22 14:34:16;;;;;;;5.70;5.10;;;;;42.40;96444.00;;;;8372439;28;20303;-82
2022/07/22 14:38:22;;;;;;;8.38;5.50;;;;;42.30;96446.00;;;;8367806;28;20220;-82
2022/07/22 14:42:27;;;;;;;7.10;5.15;;;;;42.60;96441.00;;;;8365348;28;20310;-77
2022/07/22 14:46:30;;;;;;;5.82;5.03;;;;;42.70;96440.00;;;;8349661;28;20341;-78
2022/07/22 14:50:34;;;;;;;6.15;5.60;;;;;42.50;96434.00;;;;8324119;28;20295;-77
2022/07/22 14:54:37;;;;;;;5.97;5.20;;;;;42.40;96440.00;;;;8332901;28;21885;-77
2022/07/22 14:58:42;;;;;;;5.75;5.18;;;;;42.70;96437.00;;;;8334388;28;20225;-77
2022/07/22 15:02:45;;;;;;;5.30;4.80;;;;;42.70;96439.00;;;;8347639;28;20234;-77
2022/07/22 15:06:48;;;;;;;5.43;4.70;;;;;42.80;96433.00;;;;8411892;28;20934;-80
2022/07/22 15:10:51;;;;;;;6.20;5.65;;;;;42.90;96432.00;;;;8411019;28;20246;-77
2022/07/22 15:14:56;;;;;;;5.50;5.00;;;;;43.10;96427.00;;;;8394762;28;20230;-75
2022/07/22 15:18:59;;;;;;;5.72;5.13;;;;;42.90;96424.00;;;;8378018;28;20306;-74
2022/07/22 15:23:02;;;;;;;5.75;5.22;;;;;42.10;96425.00;;;;8369499;28;20929;-75
2022/07/22 15:27:06;;;;;;;5.90;5.30;;;;;41.90;96423.00;;;;8385236;28;20219;-75
2022/07/22 15:31:11;;;;;;;5.82;5.30;;;;;41.90;96415.00;;;;8380376;28;20699;-75
2022/07/22 15:35:14;;;;;;;6.25;5.63;;;;;42.20;96415.00;;;;8375018;28;20601;-75
2022/07/22 15:39:17;;;;;;;5.20;4.78;;;;;42.20;96412.00;;;;8377611;28;20252;-75
2022/07/22 15:43:20;;;;;;;6.78;6.07;;;;;42.20;96416.00;;;;8377701;28;20705;-75
2022/07/22 15:47:26;;;;;;;6.40;5.60;;;;;42.40;96409.00;;;;8385801;28;20262;-74
2022/07/22 15:51:29;;;;;;;5.93;5.43;;;;;42.30;96403.00;;;;8379164;28;20237;-74
2022/07/22 15:55:32;;;;;;;5.90;5.40;;;;;42.20;96405.00;;;;8359853;28;20231;-75
2022/07/22 15:59:36;;;;;;;5.78;5.28;;;;;42.30;96397.00;;;;8399566;28;20568;-74
2022/07/22 16:03:41;;;;;;;7.05;5.53;;;;;42.20;96389.00;;;;8418561;28;20305;-74
2022/07/22 16:07:45;;;;;;;7.10;5.38;;;;;41.80;96390.00;;;;8351788;28;20225;-74
2022/07/22 16:11:49;;;;;;;8.43;5.80;;;;;41.40;96389.00;;;;8396752;28;20965;-74
2022/07/22 16:15:52;;;;;;;6.75;5.78;;;;;41.30;96389.00;;;;8397486;28;20311;-74
2022/07/22 16:19:57;;;;;;;7.40;6.03;;;;;41.20;96391.00;;;;8412838;28;20221;-75
2022/07/22 16:24:00;;;;;;;6.72;5.93;;;;;41.30;96385.00;;;;8390421;28;20257;-74
2022/07/22 16:28:04;;;;;;;6.90;5.65;;;;;41.40;96382.00;;;;8398019;28;20231;-74
2022/07/22 16:32:08;;;;;;;8.57;6.03;;;;;41.60;96383.00;;;;8406112;28;20226;-75
2022/07/22 16:36:12;;;;;;;17.00;5.70;;;;;41.70;96370.00;;;;8399143;28;20227;-75
2022/07/22 16:40:16;;;;;;;10.15;5.60;;;;;41.70;96370.00;;;;8394057;28;20223;-76
2022/07/22 16:44:19;;;;;;;6.72;5.63;;;;;41.80;96362.00;;;;8429900;28;20229;-74
2022/07/22 16:48:22;;;;;;;5.55;5.15;;;;;41.90;96362.00;;;;8408408;28;20223;-76
2022/07/22 16:52:27;;;;;;;5.53;5.05;;;;;42.10;96351.00;;;;8415482;28;20306;-76
2022/07/22 16:56:30;;;;;;;5.70;5.10;;;;;42.10;96351.00;;;;8416988;28;20217;-76
2022/07/22 17:00:34;;;;;;;10.68;5.47;;;;;42.10;96353.00;;;;8416280;28;20222;-76
2022/07/22 17:04:37;;;;;;;5.45;5.05;;;;;42.20;96354.00;;;;8400834;28;20340;-75
2022/07/22 17:08:42;;;;;;;5.40;5.00;;;;;42.30;96352.00;;;;8408236;28;20243;-74
2022/07/22 17:12:46;;;;;;;6.72;5.57;;;;;42.40;96345.00;;;;8390442;28;20621;-74
2022/07/22 17:17:07;;;;;;;6.22;5.43;;;;;42.30;96341.00;;;;8379552;28;20571;-75
2022/07/22 17:21:11;;;;;;;6.45;5.15;;;;;42.20;96344.00;;;;8384328;28;20224;-75
2022/07/22 17:25:17;;;;;;;7.55;5.57;;;;;42.20;96339.00;;;;8384001;28;20380;-74
2022/07/22 17:29:20;;;;;;;7.25;5.40;;;;;42.10;96338.00;;;;8414361;28;20245;-77
2022/07/22 17:33:23;;;;;;;8.43;5.53;;;;;42.00;96336.00;;;;8411890;28;20238;-76
2022/07/22 17:37:29;;;;;;;8.23;5.03;;;;;42.00;96332.00;;;;8414181;28;20268;-77
2022/07/22 17:41:34;;;;;;;5.55;5.05;;;;;42.00;96323.00;;;;8414908;28;20222;-76
2022/07/22 17:45:37;;;;;;;5.68;5.18;;;;;42.00;96310.00;;;;8410996;28;20223;-76
2022/07/22 17:49:41;;;;;;;8.93;6.20;;;;;41.80;96311.00;;;;8409179;28;20254;-75
2022/07/22 17:53:44;;;;;;;7.75;6.20;;;;;41.50;96306.00;;;;8403473;28;20222;-74
2022/07/22 17:57:49;;;;;;;9.35;6.45;;;;;40.70;96311.00;;;;8403227;28;20229;-74
2022/07/22 18:01:53;;;;;;;8.90;6.65;;;;;40.20;96309.00;;;;8404599;28;20782;-74
2022/07/22 18:05:57;;;;;;;10.18;6.30;;;;;39.30;96310.00;;;;8410405;28;20235;-75
2022/07/22 18:10:01;;;;;;;8.85;6.72;;;;;38.10;96309.00;;;;8417871;28;20242;-74
2022/07/22 18:14:05;;;;;;;7.70;6.68;;;;;37.00;96315.00;;;;8407971;28;20251;-74
2022/07/22 18:18:09;;;;;;;11.32;7.32;;;;;36.10;96309.00;;;;8407536;28;20219;-74
2022/07/22 18:22:12;;;;;;;9.00;7.20;;;;;35.40;96314.00;;;;8412269;28;20783;-79
2022/07/22 18:26:15;;;;;;;7.80;7.00;;;;;34.70;96319.00;;;;8418353;28;20219;-77
2022/07/22 18:30:20;;;;;;;12.75;7.53;;;;;34.20;96312.00;;;;8408222;28;20627;-79
2022/07/22 18:34:24;;;;;;;7.82;7.05;;;;;33.70;96320.00;;;;8412447;28;20231;-78
2022/07/22 18:38:28;;;;;;;11.48;7.18;;;;;33.20;96330.00;;;;8414676;28;20242;-78
2022/07/22 18:42:31;;;;;;;9.52;7.97;;;;;32.60;96330.00;;;;8416842;28;20739;-78
2022/07/22 18:46:35;;;;;;;49.92;11.55;;;;;31.90;96332.00;;;;8415579;28;20294;-77
2022/07/22 18:50:39;;;;;;;14.15;7.43;;;;;31.30;96336.00;;;;8414283;28;20292;-77
2022/07/22 18:54:42;;;;;;;14.68;8.30;;;;;30.90;96341.00;;;;8416018;28;20307;-77
2022/07/22 18:58:45;;;;;;;14.40;7.97;;;;;30.50;96346.00;;;;8417864;28;20214;-77
2022/07/22 19:02:50;;;;;;;35.10;11.27;;;;;30.00;96339.00;;;;8413830;28;20841;-76
2022/07/22 19:06:53;;;;;;;21.48;9.23;;;;;29.40;96352.00;;;;8414533;28;20314;-75
2022/07/22 19:10:56;;;;;;;32.40;10.38;;;;;28.90;96351.00;;;;8416253;28;20230;-77
2022/07/22 19:15:00;;;;;;;99.50;15.00;;;;;28.40;96359.00;;;;8411805;28;20961;-77
2022/07/22 19:19:04;;;;;;;93.53;16.35;;;;;28.00;96363.00;;;;8409793;28;20307;-77
2022/07/22 19:23:08;;;;;;;76.20;15.27;;;;;27.70;96377.00;;;;8410248;28;20257;-76
2022/07/22 19:27:11;;;;;;;27.20;10.73;;;;;27.30;96378.00;;;;8410344;28;20226;-77
2022/07/22 19:31:14;;;;;;;46.17;11.88;;;;;27.00;96375.00;;;;8413490;28;20704;-76
2022/07/22 19:35:19;;;;;;;36.83;10.82;;;;;26.70;96382.00;;;;8411060;28;20326;-76
2022/07/22 19:39:22;;;;;;;24.60;9.85;;;;;26.40;96377.00;;;;8411875;28;20243;-77
2022/07/22 19:43:25;;;;;;;40.47;11.57;;;;;26.10;96382.00;;;;8411279;28;20894;-76
2022/07/22 19:47:29;;;;;;;30.85;10.93;;;;;25.80;96382.00;;;;8406186;28;20219;-76
2022/07/22 19:51:34;;;;;;;30.48;11.25;;;;;25.60;96379.00;;;;8415962;28;20588;-76
2022/07/22 19:55:37;;;;;;;28.20;10.85;;;;;25.30;96381.00;;;;8395335;28;20592;-75
2022/07/22 19:59:41;;;;;;;32.63;10.60;;;;;25.10;96394.00;;;;8407341;28;20679;-75
2022/07/22 20:03:44;;;;;;;36.45;9.90;;;;;24.90;96389.00;;;;8410940;28;20233;-77
2022/07/22 20:07:49;;;;;;;28.30;10.68;;;;;24.90;96403.00;;;;8409384;28;20220;-76